Air Navigation Services of Czech Republic
Airport: LKPD Updated:  28.10.2020 05:16:24  UTC
 SPECI LKPD 28.10. 05:14 ...
SPECI LKPD 280514Z 06001KT 1500 MIFG BR NSC 01/01 Q1014 RMK AMB=
 TAF LKPD 27.10. 23:00 ...
TAF LKPD 272300Z 2800/2900 21004KT 3000 MIFG BR NSC      TEMPO 2800/2807 0600 FG VV001      BECMG 2808/2810 9999 BKN040=
 WARNING LKPD 28.10. 03:29 ...
LKPD AD WRNG 1 VALID 280345/280700 VIS BLW 800M FCST=